Terminal Aerodrome Forecast
Issued by NWS

Home | Current Version | Previous Version | Text Only | Print | Product List | Glossary Off
Versions: 1 2 3 4 5 6 7 8 9 10 11 12 13 14 15 16 17 18 19 20 21 22 23 24 25 26 27 28 29 30 31 32 33 34 35

786
FTUS43 KLOT 140320 AAA
TAFMDW
TAF AMD
KMDW 140320Z 1403/1424 13006KT P6SM OVC060
     FM140500 12007KT 6SM BR VCSH FEW020 OVC040
     FM140800 12006KT 5SM SHRA BR VCTS SCT008 OVC015CB
      TEMPO 1409/1412 3SM SHRA OVC010
     FM141300 12007KT 6SM BR VCSH SCT007 OVC012
     FM141800 18011KT 5SM -SHRA BR BKN015 OVC040=

USA.gov is the U.S. government's official web portal to all federal, state and local government web resources and services.